createdAt,value
2023-04-15T00:01:39.081Z,99644.00
2023-04-15T00:04:13.352Z,99627.00
2023-04-15T00:06:55.100Z,99635.00
2023-04-15T00:09:29.226Z,99632.00
2023-04-15T00:12:04.608Z,99638.00
2023-04-15T00:14:38.538Z,99635.00
2023-04-15T00:17:14.431Z,99635.00
2023-04-15T00:19:48.602Z,99629.00
2023-04-15T00:22:22.765Z,99614.00
2023-04-15T00:24:56.796Z,99628.00
2023-04-15T00:27:31.151Z,99633.00
2023-04-15T00:30:08.593Z,99632.00
2023-04-15T00:32:45.741Z,99644.00
2023-04-15T00:35:20.509Z,99641.00
2023-04-15T00:37:59.269Z,99646.00
2023-04-15T00:40:34.671Z,99644.00
2023-04-15T00:43:10.298Z,99635.00
2023-04-15T00:45:44.194Z,99639.00
2023-04-15T00:48:20.671Z,99640.00
2023-04-15T00:50:54.682Z,99632.00
2023-04-15T00:53:31.657Z,99635.00
2023-04-15T00:56:05.747Z,99639.00
2023-04-15T00:58:40.264Z,99632.00
2023-04-15T01:01:16.128Z,99636.00
2023-04-15T01:03:52.546Z,99640.00
2023-04-15T01:06:28.569Z,99619.00
2023-04-15T01:09:03.524Z,99614.00
2023-04-15T01:11:38.670Z,99630.00
2023-04-15T01:14:17.254Z,99623.00
2023-04-15T01:16:53.211Z,99629.00
2023-04-15T01:19:29.277Z,99634.00
2023-04-15T01:22:07.750Z,99623.00
2023-04-15T01:24:42.820Z,99628.00
2023-04-15T01:27:21.842Z,99623.00
2023-04-15T01:29:56.480Z,99629.00
2023-04-15T01:32:31.326Z,99632.00
2023-04-15T01:35:05.493Z,99632.00
2023-04-15T01:37:40.671Z,99625.00
2023-04-15T01:40:15.744Z,99639.00
2023-04-15T01:42:51.497Z,99610.00
2023-04-15T01:45:25.702Z,99626.00
2023-04-15T01:47:59.467Z,99637.00
2023-04-15T01:50:34.314Z,99637.00
2023-04-15T01:53:08.902Z,99638.00
2023-04-15T01:55:43.033Z,99635.00
2023-04-15T01:58:18.723Z,99632.00
2023-04-15T02:00:53.079Z,99634.00
2023-04-15T02:03:27.972Z,99631.00
2023-04-15T02:06:01.910Z,99613.00
2023-04-15T02:08:36.249Z,99631.00
2023-04-15T02:11:10.353Z,99634.00
2023-04-15T02:13:46.755Z,99560.00
2023-04-15T02:16:21.941Z,99631.00
2023-04-15T02:18:57.544Z,99620.00
2023-04-15T02:21:32.667Z,99622.00
2023-04-15T02:24:07.411Z,99639.00
2023-04-15T02:26:41.636Z,99643.00
2023-04-15T02:29:17.657Z,99647.00
2023-04-15T02:31:51.895Z,99646.00
2023-04-15T02:34:27.503Z,99630.00
2023-04-15T02:37:04.406Z,99636.00
2023-04-15T02:39:38.428Z,99622.00
2023-04-15T02:42:13.665Z,99647.00
2023-04-15T02:44:49.276Z,99631.00
2023-04-15T02:47:24.055Z,99658.00
2023-04-15T02:50:01.081Z,99659.00
2023-04-15T02:52:35.474Z,99629.00
2023-04-15T02:55:11.747Z,99666.00
2023-04-15T02:57:47.767Z,99663.00
2023-04-15T03:00:25.704Z,99669.00
2023-04-15T03:03:05.050Z,99660.00
2023-04-15T03:05:45.395Z,99555.00
2023-04-15T03:08:19.936Z,99670.00
2023-04-15T03:10:54.581Z,99673.00
2023-04-15T03:13:28.776Z,99665.00
2023-04-15T03:16:04.402Z,99672.00
2023-04-15T03:18:42.249Z,99648.00
2023-04-15T03:21:19.953Z,99658.00
2023-04-15T03:23:53.874Z,99665.00
2023-04-15T03:26:30.061Z,99658.00
2023-04-15T03:29:13.994Z,99683.00
2023-04-15T03:31:49.576Z,99683.00
2023-04-15T03:34:23.856Z,99689.00
2023-04-15T03:37:01.556Z,99685.00
2023-04-15T03:39:35.977Z,99673.00
2023-04-15T03:42:12.031Z,99683.00
2023-04-15T03:44:46.060Z,99693.00
2023-04-15T03:47:22.683Z,99702.00
2023-04-15T03:49:57.049Z,99687.00
2023-04-15T03:52:31.602Z,99697.00
2023-04-15T03:55:05.935Z,99696.00
2023-04-15T03:57:40.103Z,99707.00
2023-04-15T04:00:18.782Z,99673.00
2023-04-15T04:02:55.427Z,99686.00
2023-04-15T04:05:29.377Z,99683.00
2023-04-15T04:08:03.818Z,99680.00
2023-04-15T04:10:41.711Z,99685.00
2023-04-15T04:13:15.817Z,99701.00
2023-04-15T04:15:50.063Z,99706.00
2023-04-15T04:18:26.338Z,99704.00
2023-04-15T04:21:00.994Z,99704.00
2023-04-15T04:23:36.620Z,99700.00
2023-04-15T04:26:11.923Z,99711.00
2023-04-15T04:28:50.173Z,99706.00
2023-04-15T04:31:24.414Z,99692.00
2023-04-15T04:33:59.648Z,99694.00
2023-04-15T04:36:33.918Z,99712.00
2023-04-15T04:39:21.033Z,99712.00
2023-04-15T04:41:59.640Z,99713.00
2023-04-15T04:44:39.170Z,99698.00
2023-04-15T04:47:16.736Z,99724.00
2023-04-15T04:49:52.558Z,99720.00
2023-04-15T04:52:33.498Z,99706.00
2023-04-15T04:55:09.090Z,99730.00
2023-04-15T04:57:42.872Z,99737.00
2023-04-15T05:00:25.695Z,99743.00
2023-04-15T05:02:59.817Z,99737.00
2023-04-15T05:05:35.761Z,99740.00
2023-04-15T05:08:09.998Z,99733.00
2023-04-15T05:10:47.371Z,99737.00
2023-04-15T05:13:25.066Z,99758.00
2023-04-15T05:15:59.244Z,99754.00
2023-04-15T05:18:33.365Z,99757.00
2023-04-15T05:21:09.774Z,99754.00
2023-04-15T05:23:43.885Z,99763.00
2023-04-15T05:26:22.421Z,99755.00
2023-04-15T05:28:56.576Z,99728.00
2023-04-15T05:31:30.527Z,99758.00
2023-04-15T05:34:05.489Z,99770.00
2023-04-15T05:36:43.918Z,99773.00
2023-04-15T05:39:17.518Z,99740.00
2023-04-15T05:41:51.412Z,99777.00
2023-04-15T05:44:29.745Z,99783.00
2023-04-15T05:47:04.535Z,99792.00
2023-04-15T05:49:39.841Z,99779.00
2023-04-15T05:52:20.768Z,99794.00
2023-04-15T05:54:55.578Z,99758.00
2023-04-15T05:57:29.873Z,99786.00
2023-04-15T06:00:06.390Z,99749.00
2023-04-15T06:02:40.638Z,99811.00
2023-04-15T06:05:14.888Z,99801.00
2023-04-15T06:07:51.555Z,99788.00
2023-04-15T06:10:25.535Z,99798.00
2023-04-15T06:12:59.156Z,99823.00
2023-04-15T06:15:33.421Z,99821.00
2023-04-15T06:18:09.230Z,99824.00
2023-04-15T06:20:43.215Z,99834.00
2023-04-15T06:23:18.673Z,99807.00
2023-04-15T06:25:52.820Z,99806.00
2023-04-15T06:28:26.475Z,99836.00
2023-04-15T06:31:01.846Z,99830.00
2023-04-15T06:33:44.324Z,99769.00
2023-04-15T06:36:18.339Z,99796.00
2023-04-15T06:38:53.542Z,99846.00
2023-04-15T06:41:27.867Z,99840.00
2023-04-15T06:44:02.427Z,99856.00
2023-04-15T06:46:36.290Z,99852.00
2023-04-15T06:49:10.066Z,99858.00
2023-04-15T06:51:44.896Z,99838.00
2023-04-15T06:54:20.954Z,99865.00
2023-04-15T06:56:54.840Z,99859.00
2023-04-15T06:59:30.464Z,99836.00
2023-04-15T07:02:05.233Z,99864.00
2023-04-15T07:04:40.428Z,99864.00
2023-04-15T07:07:15.468Z,99886.00
2023-04-15T07:09:50.910Z,99873.00
2023-04-15T07:12:24.813Z,99839.00
2023-04-15T07:14:58.801Z,99847.00
2023-04-15T07:17:33.455Z,99882.00
2023-04-15T07:20:09.512Z,99882.00
2023-04-15T07:22:44.662Z,99876.00
2023-04-15T07:25:21.952Z,99886.00
2023-04-15T07:27:56.763Z,99847.00
2023-04-15T07:30:32.867Z,99860.00
2023-04-15T07:33:10.996Z,99889.00
2023-04-15T07:35:47.559Z,99887.00
2023-04-15T07:38:21.462Z,99893.00
2023-04-15T07:40:57.154Z,99895.00
2023-04-15T07:43:30.881Z,99902.00
2023-04-15T07:46:05.228Z,99897.00
2023-04-15T07:48:40.494Z,99883.00
2023-04-15T07:51:14.739Z,99899.00
2023-04-15T07:53:49.720Z,99905.00
2023-04-15T07:56:26.704Z,99904.00
2023-04-15T07:59:02.849Z,99905.00
2023-04-15T08:01:37.546Z,99905.00
2023-04-15T08:04:12.449Z,99904.00
2023-04-15T08:06:50.067Z,99913.00
2023-04-15T08:09:23.763Z,99911.00
2023-04-15T08:11:59.761Z,99922.00
2023-04-15T08:14:37.328Z,99908.00
2023-04-15T08:17:13.992Z,99916.00
2023-04-15T08:19:49.118Z,99905.00
2023-04-15T08:22:23.121Z,99915.00
2023-04-15T08:24:57.031Z,99915.00
2023-04-15T08:27:32.552Z,99928.00
2023-04-15T08:30:08.258Z,99928.00
2023-04-15T08:32:46.849Z,99913.00
2023-04-15T08:35:20.874Z,99920.00
2023-04-15T08:37:55.417Z,99923.00
2023-04-15T08:40:42.387Z,99927.00
2023-04-15T08:43:39.852Z,99908.00
2023-04-15T08:46:14.861Z,99917.00
2023-04-15T08:48:50.057Z,99929.00
2023-04-15T08:51:25.125Z,99937.00
2023-04-15T08:54:02.797Z,99934.00
2023-04-15T08:56:37.358Z,99897.00
2023-04-15T08:59:17.160Z,99939.00
2023-04-15T09:01:53.168Z,99940.00
2023-04-15T09:04:27.082Z,99939.00
2023-04-15T09:07:00.609Z,99948.00
2023-04-15T09:09:34.845Z,99949.00
2023-04-15T09:12:10.665Z,99952.00
2023-04-15T09:14:50.336Z,99964.00
2023-04-15T09:17:26.818Z,99963.00
2023-04-15T09:20:15.343Z,99963.00
2023-04-15T09:22:54.960Z,99968.00
2023-04-15T09:25:33.480Z,99960.00
2023-04-15T09:28:09.419Z,99982.00
2023-04-15T09:32:20.568Z,99983.00
2023-04-15T09:34:58.908Z,99994.00
2023-04-15T09:37:37.742Z,99989.00
2023-04-15T09:40:12.882Z,99963.00
2023-04-15T09:42:59.492Z,99992.00
2023-04-15T09:45:35.357Z,99978.00
2023-04-15T09:48:24.494Z,99960.00
2023-04-15T09:51:04.553Z,99995.00
2023-04-15T09:53:47.682Z,99998.00
2023-04-15T09:56:25.476Z,100001.00
2023-04-15T09:59:07.698Z,100007.00
2023-04-15T10:01:44.171Z,100006.00
2023-04-15T10:04:18.574Z,100012.00
2023-04-15T10:06:59.605Z,100016.00
2023-04-15T10:09:34.939Z,100014.00
2023-04-15T10:12:11.888Z,100018.00
2023-04-15T10:14:50.978Z,99995.00
2023-04-15T10:17:28.454Z,99989.00
2023-04-15T10:20:09.577Z,100027.00
2023-04-15T10:22:49.555Z,100014.00
2023-04-15T10:25:26.852Z,100026.00
2023-04-15T10:28:03.621Z,100025.00
2023-04-15T10:30:39.572Z,100028.00
2023-04-15T10:33:18.093Z,100038.00
2023-04-15T10:35:57.713Z,100012.00
2023-04-15T10:38:53.996Z,100047.00
2023-04-15T10:41:34.888Z,100042.00
2023-04-15T10:44:09.005Z,100040.00
2023-04-15T10:46:45.757Z,100042.00
2023-04-15T10:49:28.178Z,100050.00
2023-04-15T10:52:03.653Z,100047.00
2023-04-15T10:54:39.725Z,100050.00
2023-04-15T10:57:23.446Z,100053.00
2023-04-15T11:00:20.924Z,100037.00
2023-04-15T11:03:00.463Z,100055.00
2023-04-15T11:05:55.115Z,100052.00
2023-04-15T11:09:10.225Z,100052.00
2023-04-15T11:12:10.060Z,100074.00
2023-04-15T11:14:49.243Z,100068.00
2023-04-15T11:17:30.820Z,100076.00
2023-04-15T11:20:40.931Z,100075.00
2023-04-15T11:23:17.370Z,100073.00
2023-04-15T11:25:51.798Z,100078.00
2023-04-15T11:28:32.331Z,100080.00
2023-04-15T11:31:15.764Z,100076.00
2023-04-15T11:36:46.948Z,100076.00
2023-04-15T11:39:26.153Z,100035.00
2023-04-15T11:42:00.399Z,100094.00
2023-04-15T11:44:37.864Z,100100.00
2023-04-15T11:47:29.163Z,100102.00
2023-04-15T11:50:31.185Z,100100.00
2023-04-15T11:53:10.393Z,100095.00
2023-04-15T11:55:46.846Z,100089.00
2023-04-15T11:58:23.549Z,100083.00
2023-04-15T12:01:02.703Z,100115.00
2023-04-15T12:03:45.402Z,100115.00
2023-04-15T12:06:23.587Z,100119.00
2023-04-15T12:09:20.634Z,100102.00
2023-04-15T12:12:00.117Z,100120.00
2023-04-15T12:14:35.698Z,100127.00
2023-04-15T12:17:14.566Z,100124.00
2023-04-15T12:19:58.467Z,100133.00
2023-04-15T12:22:32.491Z,100132.00
2023-04-15T12:25:07.454Z,100116.00
2023-04-15T12:27:52.166Z,100144.00
2023-04-15T12:30:26.397Z,100154.00
2023-04-15T12:33:03.057Z,100148.00
2023-04-15T12:35:48.871Z,100167.00
2023-04-15T12:38:22.927Z,100160.00
2023-04-15T12:40:56.761Z,100163.00
2023-04-15T12:43:31.641Z,100165.00
2023-04-15T12:46:10.589Z,100164.00
2023-04-15T12:48:46.476Z,100170.00
2023-04-15T12:51:21.812Z,100179.00
2023-04-15T12:53:55.832Z,100172.00
2023-04-15T12:56:30.201Z,100183.00
2023-04-15T12:59:04.048Z,100180.00
2023-04-15T13:01:38.026Z,100184.00
2023-04-15T13:04:13.668Z,100188.00
2023-04-15T13:06:50.714Z,100188.00
2023-04-15T13:09:27.286Z,100182.00
2023-04-15T13:12:02.514Z,100188.00
2023-04-15T13:14:36.428Z,100196.00
2023-04-15T13:17:11.900Z,100204.00
2023-04-15T13:19:47.096Z,100202.00
2023-04-15T13:22:21.634Z,100196.00
2023-04-15T13:24:56.970Z,100206.00
2023-04-15T13:27:31.935Z,100206.00
2023-04-15T13:30:18.532Z,100208.00
2023-04-15T13:32:54.284Z,100220.00
2023-04-15T13:35:29.608Z,100214.00
2023-04-15T13:38:03.689Z,100228.00
2023-04-15T13:40:37.854Z,100219.00
2023-04-15T13:43:12.055Z,100233.00
2023-04-15T13:45:46.378Z,100230.00
2023-04-15T13:48:20.180Z,100235.00
2023-04-15T13:50:55.735Z,100239.00
2023-04-15T13:53:37.803Z,100228.00
2023-04-15T13:56:13.743Z,100236.00
2023-04-15T13:58:47.296Z,100240.00
2023-04-15T14:01:30.833Z,100244.00
2023-04-15T14:04:05.344Z,100244.00
2023-04-15T14:06:41.224Z,100251.00
2023-04-15T14:09:18.570Z,100267.00
2023-04-15T14:11:53.196Z,100265.00
2023-04-15T14:14:27.428Z,100268.00
2023-04-15T14:17:01.476Z,100264.00
2023-04-15T14:19:37.755Z,100265.00
2023-04-15T14:22:13.607Z,100267.00
2023-04-15T14:24:48.992Z,100265.00
2023-04-15T14:27:25.678Z,100272.00
2023-04-15T14:29:59.731Z,100283.00
2023-04-15T14:32:33.458Z,100283.00
2023-04-15T14:35:08.367Z,100285.00
2023-04-15T14:37:45.081Z,100288.00
2023-04-15T14:40:19.465Z,100293.00
2023-04-15T14:42:53.477Z,100292.00
2023-04-15T14:45:27.996Z,100299.00
2023-04-15T14:48:02.067Z,100299.00
2023-04-15T14:50:36.420Z,100300.00
2023-04-15T14:53:12.030Z,100304.00
2023-04-15T14:55:46.375Z,100305.00
2023-04-15T14:58:20.602Z,100311.00
2023-04-15T15:00:55.653Z,100310.00
2023-04-15T15:03:33.077Z,100312.00
2023-04-15T15:06:07.176Z,100313.00
2023-04-15T15:08:44.937Z,100322.00
2023-04-15T15:11:18.961Z,100326.00
2023-04-15T15:13:52.896Z,100330.00
2023-04-15T15:16:30.128Z,100332.00
2023-04-15T15:19:05.306Z,100336.00
2023-04-15T15:21:39.309Z,100330.00
2023-04-15T15:24:14.778Z,100333.00
2023-04-15T15:26:50.217Z,100331.00
2023-04-15T15:29:26.812Z,100330.00
2023-04-15T15:32:02.090Z,100335.00
2023-04-15T15:34:36.053Z,100333.00
2023-04-15T15:37:10.014Z,100335.00
2023-04-15T15:39:52.177Z,100340.00
2023-04-15T15:42:27.219Z,100341.00
2023-04-15T15:45:01.372Z,100332.00
2023-04-15T15:47:35.406Z,100330.00
2023-04-15T15:50:11.280Z,100343.00
2023-04-15T15:52:53.087Z,100353.00
2023-04-15T15:55:33.406Z,100346.00
2023-04-15T15:58:07.411Z,100358.00
2023-04-15T16:00:41.504Z,100351.00
2023-04-15T16:03:15.528Z,100361.00
2023-04-15T16:05:51.206Z,100353.00
2023-04-15T16:08:27.626Z,100366.00
2023-04-15T16:11:04.646Z,100356.00
2023-04-15T16:13:38.622Z,100338.00
2023-04-15T16:16:12.734Z,100368.00
2023-04-15T16:18:47.045Z,100377.00
2023-04-15T16:21:21.259Z,100378.00
2023-04-15T16:23:56.295Z,100381.00
2023-04-15T16:26:31.536Z,100391.00
2023-04-15T16:29:05.810Z,100396.00
2023-04-15T16:31:46.082Z,100400.00
2023-04-15T16:34:20.427Z,100403.00
2023-04-15T16:36:54.750Z,100409.00
2023-04-15T16:39:29.172Z,100407.00
2023-04-15T16:42:05.117Z,100425.00
2023-04-15T16:44:42.408Z,100420.00
2023-04-15T16:47:16.930Z,100426.00
2023-04-15T16:49:51.272Z,100426.00
2023-04-15T16:52:26.304Z,100405.00
2023-04-15T16:55:00.145Z,100431.00
2023-04-15T16:58:00.893Z,100433.00
2023-04-15T17:00:29.610Z,100433.00
2023-04-15T17:03:04.241Z,100438.00
2023-04-15T17:05:38.579Z,100441.00
2023-04-15T17:08:12.521Z,100435.00
2023-04-15T17:10:46.718Z,100437.00
2023-04-15T17:13:22.337Z,100440.00
2023-04-15T17:15:56.353Z,100444.00
2023-04-15T17:18:30.245Z,100455.00
2023-04-15T17:21:04.356Z,100451.00
2023-04-15T17:23:40.222Z,100457.00
2023-04-15T17:26:13.590Z,100458.00
2023-04-15T17:28:48.544Z,100461.00
2023-04-15T17:31:22.405Z,100449.00
2023-04-15T17:34:09.118Z,100457.00
2023-04-15T17:36:44.179Z,100453.00
2023-04-15T17:39:19.526Z,100469.00
2023-04-15T17:41:53.439Z,100479.00
2023-04-15T17:44:28.710Z,100477.00
2023-04-15T17:47:02.636Z,100486.00
2023-04-15T17:49:37.951Z,100474.00
2023-04-15T17:52:12.997Z,100475.00
2023-04-15T17:54:47.894Z,100466.00
2023-04-15T17:57:26.925Z,100486.00
2023-04-15T18:00:02.427Z,100482.00
2023-04-15T18:02:37.431Z,100494.00
2023-04-15T18:05:14.976Z,100495.00
2023-04-15T18:07:49.082Z,100498.00
2023-04-15T18:10:24.365Z,100507.00
2023-04-15T18:13:01.040Z,100499.00
2023-04-15T18:15:40.268Z,100506.00
2023-04-15T18:18:14.259Z,100504.00
2023-04-15T18:20:50.951Z,100492.00
2023-04-15T18:23:24.474Z,100522.00
2023-04-15T18:25:59.054Z,100520.00
2023-04-15T18:28:34.989Z,100530.00
2023-04-15T18:31:10.550Z,100529.00
2023-04-15T18:33:43.971Z,100516.00
2023-04-15T18:36:17.811Z,100537.00
2023-04-15T18:38:51.550Z,100546.00
2023-04-15T18:41:27.660Z,100545.00
2023-04-15T18:44:01.778Z,100550.00
2023-04-15T18:46:37.353Z,100556.00
2023-04-15T18:49:15.009Z,100558.00
2023-04-15T18:51:48.408Z,100565.00
2023-04-15T18:54:22.056Z,100560.00
2023-04-15T18:56:56.563Z,100569.00
2023-04-15T18:59:30.859Z,100566.00
2023-04-15T19:02:07.807Z,100573.00
2023-04-15T19:04:41.790Z,100575.00
2023-04-15T19:07:15.696Z,100575.00
2023-04-15T19:09:49.401Z,100591.00
2023-04-15T19:12:23.225Z,100575.00
2023-04-15T19:14:57.252Z,100580.00
2023-04-15T19:17:32.725Z,100593.00
2023-04-15T19:20:08.096Z,100598.00
2023-04-15T19:22:43.341Z,100594.00
2023-04-15T19:25:17.284Z,100597.00
2023-04-15T19:27:51.204Z,100605.00
2023-04-15T19:30:25.992Z,100608.00
2023-04-15T19:33:03.921Z,100605.00
2023-04-15T19:35:38.488Z,100603.00
2023-04-15T19:38:12.395Z,100611.00
2023-04-15T19:40:49.530Z,100617.00
2023-04-15T19:43:24.824Z,100606.00
2023-04-15T19:45:59.002Z,100614.00
2023-04-15T19:48:34.831Z,100630.00
2023-04-15T19:51:08.890Z,100615.00
2023-04-15T19:53:49.844Z,100602.00
2023-04-15T19:56:24.250Z,100628.00
2023-04-15T19:59:00.106Z,100631.00
2023-04-15T20:01:36.056Z,100617.00
2023-04-15T20:04:11.978Z,100630.00
2023-04-15T20:06:46.246Z,100628.00
2023-04-15T20:09:24.503Z,100624.00
2023-04-15T20:12:46.817Z,100630.00
2023-04-15T20:14:52.829Z,100629.00
2023-04-15T20:17:26.727Z,100627.00
2023-04-15T20:20:02.493Z,100622.00
2023-04-15T20:22:36.417Z,100627.00
2023-04-15T20:25:10.984Z,100625.00
2023-04-15T20:27:45.002Z,100638.00
2023-04-15T20:30:19.189Z,100624.00
2023-04-15T20:32:53.609Z,100637.00
2023-04-15T20:35:31.134Z,100635.00
2023-04-15T20:38:06.166Z,100640.00
2023-04-15T20:40:41.640Z,100636.00
2023-04-15T20:43:15.871Z,100636.00
2023-04-15T20:45:50.786Z,100640.00
2023-04-15T20:48:28.451Z,100647.00
2023-04-15T20:51:03.662Z,100649.00
2023-04-15T20:53:37.543Z,100648.00
2023-04-15T20:56:14.146Z,100631.00
2023-04-15T20:58:49.957Z,100655.00
2023-04-15T21:01:23.630Z,100655.00
2023-04-15T21:03:59.857Z,100645.00
2023-04-15T21:06:35.627Z,100652.00
2023-04-15T21:09:09.172Z,100635.00
2023-04-15T21:11:57.445Z,100661.00
2023-04-15T21:14:35.021Z,100662.00
2023-04-15T21:17:11.053Z,100655.00
2023-04-15T21:19:45.230Z,100659.00
2023-04-15T21:22:24.047Z,100662.00
2023-04-15T21:24:57.590Z,100658.00
2023-04-15T21:27:34.137Z,100656.00
2023-04-15T21:30:12.015Z,100666.00
2023-04-15T21:32:46.183Z,100661.00
2023-04-15T21:35:20.211Z,100673.00
2023-04-15T21:37:57.461Z,100676.00
2023-04-15T21:40:31.551Z,100676.00
2023-04-15T21:43:05.618Z,100688.00
2023-04-15T21:45:39.946Z,100685.00
2023-04-15T21:48:14.218Z,100701.00
2023-04-15T21:50:51.155Z,100689.00
2023-04-15T21:53:26.440Z,100697.00
2023-04-15T21:56:00.754Z,100699.00
2023-04-15T21:58:34.652Z,100703.00
2023-04-15T22:01:08.660Z,100706.00
2023-04-15T22:03:55.102Z,100578.00
2023-04-15T22:06:29.104Z,100707.00
2023-04-15T22:09:04.437Z,100712.00
2023-04-15T22:11:38.332Z,100694.00
2023-04-15T22:14:11.785Z,100714.00
2023-04-15T22:16:49.231Z,100711.00
2023-04-15T22:19:23.151Z,100704.00
2023-04-15T22:21:58.368Z,100713.00
2023-04-15T22:24:40.326Z,100697.00
2023-04-15T22:27:15.088Z,100721.00
2023-04-15T22:29:48.888Z,100721.00
2023-04-15T22:32:22.791Z,100721.00
2023-04-15T22:34:57.047Z,100711.00
2023-04-15T22:37:31.114Z,100722.00
2023-04-15T22:40:07.228Z,100697.00
2023-04-15T22:42:41.234Z,100708.00
2023-04-15T22:45:17.319Z,100730.00
2023-04-15T22:47:51.331Z,100730.00
2023-04-15T22:50:25.325Z,100721.00
2023-04-15T22:52:58.873Z,100742.00
2023-04-15T22:55:34.338Z,100742.00
2023-04-15T22:58:08.126Z,100726.00
2023-04-15T23:00:45.097Z,100750.00
2023-04-15T23:03:19.079Z,100724.00
2023-04-15T23:05:52.813Z,100743.00
2023-04-15T23:08:27.007Z,100746.00
2023-04-15T23:11:02.220Z,100755.00
2023-04-15T23:13:38.227Z,100747.00
2023-04-15T23:16:14.844Z,100750.00
2023-04-15T23:18:48.778Z,100758.00
2023-04-15T23:21:24.248Z,100755.00
2023-04-15T23:23:59.827Z,100758.00
2023-04-15T23:26:35.402Z,100753.00
2023-04-15T23:29:10.577Z,100760.00
2023-04-15T23:31:47.354Z,100752.00
2023-04-15T23:34:21.288Z,100758.00
2023-04-15T23:36:55.152Z,100764.00
2023-04-15T23:39:32.345Z,100766.00
2023-04-15T23:42:10.496Z,100750.00
2023-04-15T23:44:47.095Z,100764.00
2023-04-15T23:47:20.874Z,100764.00
2023-04-15T23:49:55.756Z,100764.00
2023-04-15T23:52:31.899Z,100770.00
2023-04-15T23:55:05.971Z,100771.00
2023-04-15T23:57:42.289Z,100769.00
